| time (UTC) | temp F | wind direction | speed MPH | gust MPH | rain 1hr in | rain 24hr in | rain mn in | humidity % | barometer mb |
| 20260504173015 | 61 | 135 | 3.0 | 8.0 | 0.00 | 0.00 | 0.00 | 42 | 1012.8 |
| 20260504172535 | 61 | 180 | 2.0 | 5.0 | 0.00 | 0.00 | 0.00 | 37 | 1012.9 |
| 20260504172015 | 61 | 203 | 3.0 | 5.0 | 0.00 | 0.00 | 0.00 | 41 | 1013.0 |
| 20260504171515 | 61 | 113 | 1.0 | 5.0 | 0.00 | 0.00 | 0.00 | 44 | 1013.0 |
| 20260504171035 | 60 | 113 | 2.0 | 6.0 | 0.00 | 0.00 | 0.00 | 43 | 1013.2 |
| 20260504170516 | 59 | 113 | 2.0 | 6.0 | 0.00 | 0.00 | 0.00 | 42 | 1013.1 |
| 20260504151015 | 47 | 0.0 | 3.0 | 0.00 | 0.00 | 0.00 | 55 | 1013.8 | |
| 20260504150515 | 47 | 0.0 | 2.0 | 0.00 | 0.00 | 0.00 | 56 | 1013.9 | |
| 20260504141037 | 38 | 0.0 | 0.0 | 0.00 | 0.00 | 0.00 | 70 | 1014.1 | |
| 20260504140517 | 37 | 0.0 | 0.0 | 0.00 | 0.00 | 0.00 | 72 | 1014.1 | |
| 20260504130537 | 31 | 0.0 | 0.0 | 0.00 | 0.00 | 0.00 | 79 | 1014.2 | |
| 20260504110536 | 31 | 45 | 3.0 | 5.0 | 0.00 | 0.00 | 0.00 | 78 | 1013.5 |
| 20260504100536 | 30 | 0.0 | 0.0 | 0.00 | 0.00 | 0.00 | 77 | 1013.0 | |
| 20260504081516 | 32 | 0.0 | 0.0 | 0.00 | 0.00 | 0.00 | 71 | 1013.4 | |
| 20260504081016 | 32 | 0.0 | 0.0 | 0.00 | 0.00 | 0.00 | 70 | 1013.4 | |
| 20260504080517 | 32 | 0.0 | 0.0 | 0.00 | 0.00 | 0.00 | 71 | 1013.5 | |
| 20260504050516 | 40 | 0.0 | 0.0 | 0.00 | 0.00 | 0.00 | 53 | 1014.1 | |
| 20260504045516 | 41 | 0.0 | 1.0 | 0.00 | 0.00 | 0.00 | 52 | 1014.1 | |
| 20260504045017 | 41 | 0.0 | 0.0 | 0.00 | 0.00 | 0.00 | 52 | 1014.2 | |
| 20260504044516 | 42 | 0.0 | 1.0 | 0.00 | 0.00 | 0.00 | 51 | 1014.2 | |
| 20260504044016 | 42 | 0.0 | 0.0 | 0.00 | 0.00 | 0.00 | 50 | 1014.3 | |
| 20260504043516 | 42 | 0.0 | 0.0 | 0.00 | 0.00 | 0.00 | 49 | 1014.3 | |
| 20260504043017 | 42 | 0.0 | 0.0 | 0.00 | 0.00 | 0.00 | 48 | 1014.2 | |
| 20260504042537 | 43 | 45 | 2.0 | 4.0 | 0.00 | 0.00 | 0.00 | 48 | 1014.3 |
| 20260504042016 | 43 | 45 | 2.0 | 5.0 | 0.00 | 0.00 | 0.00 | 48 | 1014.2 |
| 20260504041516 | 43 | 0.0 | 0.0 | 0.00 | 0.00 | 0.00 | 47 | 1014.2 | |
| 20260504041016 | 43 | 0.0 | 0.0 | 0.00 | 0.00 | 0.00 | 48 | 1014.3 | |
| 20260504040536 | 43 | 0.0 | 0.0 | 0.00 | 0.00 | 0.00 | 48 | 1014.2 | |
| 20260504040016 | 44 | 0.0 | 0.0 | 0.00 | 0.00 | 0.00 | 48 | 1014.3 | |
| 20260504035516 | 44 | 0.0 | 0.0 | 0.00 | 0.00 | 0.00 | 46 | 1014.3 | |
| 20260504035016 | 45 | 0.0 | 0.0 | 0.00 | 0.00 | 0.00 | 47 | 1014.2 | |
| 20260504034516 | 45 | 0.0 | 0.0 | 0.00 | 0.00 | 0.00 | 45 | 1014.2 | |
| 20260504034037 | 45 | 0.0 | 1.0 | 0.00 | 0.00 | 0.00 | 44 | 1014.2 | |
| 20260504033516 | 46 | 270 | 1.0 | 3.0 | 0.00 | 0.00 | 0.00 | 43 | 1014.2 |
| 20260504033016 | 47 | 0.0 | 1.0 | 0.00 | 0.00 | 0.00 | 43 | 1014.2 | |
| 20260504032516 | 47 | 0.0 | 0.0 | 0.00 | 0.00 | 0.00 | 42 | 1014.2 | |
| 20260504032016 | 48 | 0.0 | 0.0 | 0.00 | 0.00 | 0.00 | 42 | 1014.2 | |
| 20260504031516 | 49 | 0.0 | 0.0 | 0.00 | 0.00 | 0.00 | 41 | 1014.2 | |
| 20260504031016 | 49 | 0.0 | 0.0 | 0.00 | 0.00 | 0.00 | 40 | 1014.1 | |
| 20260504030517 | 50 | 0.0 | 0.0 | 0.00 | 0.00 | 0.00 | 38 | 1014.0 | |
| 20260504030016 | 50 | 0.0 | 0.0 | 0.00 | 0.00 | 0.00 | 37 | 1014.0 | |
| 20260504025516 | 51 | 0.0 | 0.0 | 0.00 | 0.00 | 0.00 | 36 | 1013.9 | |
| 20260504025016 | 52 | 0.0 | 0.0 | 0.00 | 0.00 | 0.00 | 35 | 1013.9 | |
| 20260504024516 | 52 | 0.0 | 0.0 | 0.00 | 0.00 | 0.00 | 32 | 1013.8 | |
| 20260504024036 | 53 | 0.0 | 0.0 | 0.00 | 0.00 | 0.00 | 32 | 1013.8 | |
| 20260504023537 | 53 | 0.0 | 0.0 | 0.00 | 0.00 | 0.00 | 32 | 1013.6 | |
| 20260504023016 | 54 | 0.0 | 0.0 | 0.00 | 0.00 | 0.00 | 30 | 1013.7 | |
| 20260504022516 | 55 | 0.0 | 0.0 | 0.00 | 0.00 | 0.00 | 28 | 1013.7 | |
| 20260504022017 | 55 | 0.0 | 0.0 | 0.00 | 0.00 | 0.00 | 28 | 1013.6 | |
| 20260504021516 | 56 | 0.0 | 1.0 | 0.00 | 0.00 | 0.00 | 27 | 1013.6 | |
| 20260504021016 | 56 | 0.0 | 1.0 | 0.00 | 0.00 | 0.00 | 27 | 1013.5 | |
| 20260504020516 | 56 | 270 | 1.0 | 2.0 | 0.00 | 0.00 | 0.00 | 26 | 1013.5 |
| 20260504020036 | 57 | 270 | 2.0 | 4.0 | 0.00 | 0.00 | 0.00 | 25 | 1013.6 |
| 20260504015516 | 57 | 270 | 2.0 | 6.0 | 0.00 | 0.00 | 0.00 | 26 | 1013.5 |
| 20260504015016 | 58 | 0.0 | 1.0 | 0.00 | 0.00 | 0.00 | 25 | 1013.5 | |
| 20260504014516 | 58 | 270 | 1.0 | 4.0 | 0.00 | 0.00 | 0.00 | 25 | 1013.5 |
| 20260504014017 | 59 | 270 | 2.0 | 4.0 | 0.00 | 0.00 | 0.00 | 25 | 1013.5 |
| 20260504013516 | 59 | 248 | 2.0 | 4.0 | 0.00 | 0.00 | 0.00 | 24 | 1013.5 |
| 20260504013016 | 60 | 270 | 3.0 | 7.0 | 0.00 | 0.00 | 0.00 | 23 | 1013.4 |
| 20260504012516 | 60 | 270 | 3.0 | 6.0 | 0.00 | 0.00 | 0.00 | 22 | 1013.5 |
| 20260504012016 | 60 | 270 | 4.0 | 8.0 | 0.00 | 0.00 | 0.00 | 22 | 1013.5 |
| 20260504011536 | 61 | 270 | 5.0 | 8.0 | 0.00 | 0.00 | 0.00 | 21 | 1013.5 |
| 20260504011016 | 62 | 270 | 5.0 | 7.0 | 0.00 | 0.00 | 0.00 | 22 | 1013.5 |
| 20260504010516 | 62 | 270 | 4.0 | 8.0 | 0.00 | 0.00 | 0.00 | 22 | 1013.5 |
| 20260504010016 | 63 | 270 | 4.0 | 8.0 | 0.00 | 0.00 | 0.00 | 21 | 1013.6 |
| 20260504005516 | 63 | 270 | 4.0 | 9.0 | 0.00 | 0.00 | 0.00 | 22 | 1013.5 |
| 20260504005016 | 63 | 270 | 5.0 | 8.0 | 0.00 | 0.00 | 0.00 | 22 | 1013.5 |
| 20260504004516 | 63 | 270 | 5.0 | 9.0 | 0.00 | 0.00 | 0.00 | 22 | 1013.6 |
| 20260504004036 | 64 | 270 | 5.0 | 10.0 | 0.00 | 0.00 | 0.00 | 20 | 1013.6 |
| 20260504003516 | 64 | 270 | 5.0 | 12.0 | 0.00 | 0.00 | 0.00 | 19 | 1013.5 |
| 20260504003017 | 64 | 270 | 6.0 | 14.0 | 0.00 | 0.00 | 0.00 | 18 | 1013.7 |
| 20260504002516 | 65 | 270 | 6.0 | 11.0 | 0.00 | 0.00 | 0.00 | 20 | 1013.7 |
| 20260504002016 | 65 | 270 | 5.0 | 10.0 | 0.00 | 0.00 | 0.00 | 18 | 1013.7 |
| 20260504001557 | 65 | 270 | 6.0 | 11.0 | 0.00 | 0.00 | 0.00 | 18 | 1013.7 |
| 20260504001016 | 65 | 270 | 6.0 | 12.0 | 0.00 | 0.00 | 0.00 | 19 | 1013.7 |
| 20260504000516 | 66 | 270 | 6.0 | 12.0 | 0.00 | 0.00 | 0.00 | 18 | 1013.8 |
| 20260504000016 | 66 | 270 | 9.0 | 17.0 | 0.00 | 0.00 | 0.00 | 16 | 1013.8 |
| 20260503235536 | 67 | 270 | 7.0 | 13.0 | 0.00 | 0.00 | 0.00 | 18 | 1013.8 |
| 20260503235016 | 67 | 270 | 8.0 | 16.0 | 0.00 | 0.00 | 0.00 | 18 | 1013.8 |
| 20260503234516 | 67 | 270 | 10.0 | 22.0 | 0.00 | 0.00 | 0.00 | 17 | 1013.8 |
| 20260503234016 | 66 | 270 | 7.0 | 16.0 | 0.00 | 0.00 | 0.00 | 16 | 1013.8 |
| 20260503233516 | 66 | 270 | 6.0 | 13.0 | 0.00 | 0.00 | 0.00 | 16 | 1013.8 |
| 20260503233016 | 67 | 270 | 8.0 | 15.0 | 0.00 | 0.00 | 0.00 | 16 | 1014.0 |
| 20260503232516 | 67 | 248 | 6.0 | 16.0 | 0.00 | 0.00 | 0.00 | 18 | 1013.9 |
| 20260503232017 | 68 | 270 | 7.0 | 18.0 | 0.00 | 0.00 | 0.00 | 18 | 1013.9 |
| 20260503231516 | 68 | 225 | 6.0 | 14.0 | 0.00 | 0.00 | 0.00 | 18 | 1013.9 |
| 20260503231017 | 68 | 248 | 6.0 | 15.0 | 0.00 | 0.00 | 0.00 | 18 | 1014.0 |
| 20260503230516 | 68 | 248 | 7.0 | 17.0 | 0.00 | 0.00 | 0.00 | 18 | 1014.0 |
| 20260503230016 | 68 | 270 | 10.0 | 16.0 | 0.00 | 0.00 | 0.00 | 18 | 1014.0 |
| 20260503225516 | 68 | 270 | 7.0 | 23.0 | 0.00 | 0.00 | 0.00 | 17 | 1014.0 |
| 20260503225016 | 68 | 270 | 9.0 | 18.0 | 0.00 | 0.00 | 0.00 | 17 | 1014.0 |
| 20260503224515 | 69 | 270 | 6.0 | 14.0 | 0.00 | 0.00 | 0.00 | 19 | 1014.1 |
| 20260503224016 | 68 | 270 | 10.0 | 17.0 | 0.00 | 0.00 | 0.00 | 19 | 1014.1 |
| 20260503223536 | 69 | 270 | 8.0 | 17.0 | 0.00 | 0.00 | 0.00 | 18 | 1014.0 |
| 20260503223016 | 69 | 293 | 12.0 | 21.0 | 0.00 | 0.00 | 0.00 | 18 | 1014.2 |
| 20260503222516 | 69 | 270 | 10.0 | 20.0 | 0.00 | 0.00 | 0.00 | 21 | 1014.2 |
| 20260503222016 | 70 | 270 | 12.0 | 20.0 | 0.00 | 0.00 | 0.00 | 18 | 1014.3 |
| 20260503221515 | 70 | 270 | 15.0 | 23.0 | 0.00 | 0.00 | 0.00 | 19 | 1014.4 |
| 20260503221015 | 70 | 270 | 8.0 | 16.0 | 0.00 | 0.00 | 0.00 | 22 | 1014.5 |
| 20260503220536 | 69 | 270 | 6.0 | 14.0 | 0.00 | 0.00 | 0.00 | 19 | 1014.5 |
| 20260503220016 | 69 | 270 | 10.0 | 24.0 | 0.00 | 0.00 | 0.00 | 19 | 1014.6 |
| 20260503215515 | 69 | 270 | 12.0 | 26.0 | 0.00 | 0.00 | 0.00 | 20 | 1014.6 |
| 20260503215015 | 70 | 270 | 10.0 | 20.0 | 0.00 | 0.00 | 0.00 | 19 | 1014.8 |
| 20260503214515 | 69 | 270 | 11.0 | 17.0 | 0.00 | 0.00 | 0.00 | 22 | 1014.7 |
| 20260503214016 | 70 | 270 | 9.0 | 21.0 | 0.00 | 0.00 | 0.00 | 20 | 1014.9 |
| 20260503213515 | 70 | 270 | 8.0 | 17.0 | 0.00 | 0.00 | 0.00 | 21 | 1015.0 |
| 20260503213015 | 70 | 270 | 10.0 | 19.0 | 0.00 | 0.00 | 0.00 | 21 | 1015.0 |
| 20260503212516 | 70 | 270 | 9.0 | 15.0 | 0.00 | 0.00 | 0.00 | 23 | 1015.1 |
| 20260503212015 | 70 | 270 | 10.0 | 19.0 | 0.00 | 0.00 | 0.00 | 21 | 1015.2 |
| 20260503211516 | 69 | 225 | 8.0 | 15.0 | 0.00 | 0.00 | 0.00 | 22 | 1015.1 |
| 20260503211015 | 69 | 270 | 7.0 | 18.0 | 0.00 | 0.00 | 0.00 | 21 | 1015.2 |
| 20260503210516 | 69 | 270 | 10.0 | 15.0 | 0.00 | 0.00 | 0.00 | 22 | 1015.2 |
| 20260503210015 | 69 | 248 | 7.0 | 13.0 | 0.00 | 0.00 | 0.00 | 21 | 1015.2 |
| 20260503205515 | 69 | 270 | 13.0 | 20.0 | 0.00 | 0.00 | 0.00 | 23 | 1015.3 |
| 20260503205035 | 69 | 270 | 8.0 | 20.0 | 0.00 | 0.00 | 0.00 | 22 | 1015.4 |
| 20260503204515 | 69 | 270 | 9.0 | 17.0 | 0.00 | 0.00 | 0.00 | 22 | 1015.4 |
| 20260503204015 | 69 | 270 | 13.0 | 24.0 | 0.00 | 0.00 | 0.00 | 22 | 1015.6 |
| 20260503203515 | 68 | 248 | 5.0 | 12.0 | 0.00 | 0.00 | 0.00 | 22 | 1015.5 |
| 20260503203036 | 69 | 225 | 7.0 | 17.0 | 0.00 | 0.00 | 0.00 | 20 | 1015.6 |
| 20260503202515 | 69 | 293 | 12.0 | 24.0 | 0.00 | 0.00 | 0.00 | 24 | 1016.1 |
| 20260503202036 | 68 | 270 | 14.0 | 23.0 | 0.00 | 0.00 | 0.00 | 21 | 1016.0 |
| 20260503201516 | 69 | 270 | 12.0 | 21.0 | 0.00 | 0.00 | 0.00 | 20 | 1016.1 |
| 20260503201015 | 69 | 270 | 12.0 | 20.0 | 0.00 | 0.00 | 0.00 | 20 | 1016.2 |
| 20260503200535 | 69 | 270 | 11.0 | 18.0 | 0.00 | 0.00 | 0.00 | 24 | 1016.1 |
| 20260503200015 | 69 | 270 | 13.0 | 24.0 | 0.00 | 0.00 | 0.00 | 21 | 1016.2 |
| 20260503195516 | 69 | 270 | 12.0 | 21.0 | 0.00 | 0.00 | 0.00 | 21 | 1016.1 |
| 20260503195016 | 70 | 293 | 12.0 | 21.0 | 0.00 | 0.00 | 0.00 | 23 | 1016.2 |
| 20260503194515 | 69 | 270 | 10.0 | 18.0 | 0.00 | 0.00 | 0.00 | 21 | 1016.3 |
| 20260503194015 | 69 | 293 | 12.0 | 18.0 | 0.00 | 0.00 | 0.00 | 23 | 1016.4 |
| 20260503193516 | 69 | 270 | 11.0 | 18.0 | 0.00 | 0.00 | 0.00 | 23 | 1016.5 |
| 20260503193015 | 69 | 270 | 12.0 | 24.0 | 0.00 | 0.00 | 0.00 | 22 | 1016.6 |
| 20260503192515 | 69 | 293 | 9.0 | 21.0 | 0.00 | 0.00 | 0.00 | 25 | 1016.6 |
| 20260503192015 | 68 | 293 | 12.0 | 21.0 | 0.00 | 0.00 | 0.00 | 25 | 1016.6 |
| 20260503191515 | 68 | 270 | 10.0 | 16.0 | 0.00 | 0.00 | 0.00 | 26 | 1016.8 |
| 20260503191015 | 68 | 248 | 9.0 | 17.0 | 0.00 | 0.00 | 0.00 | 25 | 1016.8 |
| 20260503190515 | 67 | 293 | 8.0 | 14.0 | 0.00 | 0.00 | 0.00 | 26 | 1016.8 |
| 20260503190016 | 67 | 270 | 13.0 | 21.0 | 0.00 | 0.00 | 0.00 | 24 | 1016.9 |
| 20260503185515 | 68 | 293 | 12.0 | 19.0 | 0.00 | 0.00 | 0.00 | 23 | 1017.1 |
| 20260503185015 | 68 | 270 | 9.0 | 20.0 | 0.00 | 0.00 | 0.00 | 24 | 1017.0 |
| 20260503184515 | 68 | 270 | 11.0 | 20.0 | 0.00 | 0.00 | 0.00 | 24 | 1017.1 |
| 20260503184035 | 68 | 270 | 8.0 | 16.0 | 0.00 | 0.00 | 0.00 | 24 | 1017.3 |
| 20260503183515 | 68 | 270 | 9.0 | 19.0 | 0.00 | 0.00 | 0.00 | 26 | 1017.4 |
| 20260503183015 | 67 | 225 | 5.0 | 14.0 | 0.00 | 0.00 | 0.00 | 24 | 1017.5 |
| 20260503182515 | 67 | 293 | 9.0 | 16.0 | 0.00 | 0.00 | 0.00 | 27 | 1017.4 |
| 20260503182015 | 67 | 270 | 11.0 | 19.0 | 0.00 | 0.00 | 0.00 | 25 | 1017.5 |
| 20260503181516 | 67 | 225 | 7.0 | 17.0 | 0.00 | 0.00 | 0.00 | 25 | 1017.6 |
| 20260503181015 | 66 | 270 | 7.0 | 13.0 | 0.00 | 0.00 | 0.00 | 28 | 1017.5 |
| 20260503180515 | 65 | 225 | 6.0 | 17.0 | 0.00 | 0.00 | 0.00 | 25 | 1017.7 |
| 20260503180016 | 66 | 293 | 9.0 | 18.0 | 0.00 | 0.00 | 0.00 | 25 | 1017.8 |
| 20260503175515 | 65 | 270 | 9.0 | 18.0 | 0.00 | 0.00 | 0.00 | 26 | 1018.0 |
| 20260503175015 | 65 | 270 | 9.0 | 16.0 | 0.00 | 0.00 | 0.00 | 27 | 1018.1 |
| 20260503174515 | 65 | 270 | 7.0 | 13.0 | 0.00 | 0.00 | 0.00 | 27 | 1018.1 |
| 20260503174035 | 65 | 270 | 6.0 | 12.0 | 0.00 | 0.00 | 0.00 | 30 | 1018.2 |
| 20260503173535 | 64 | 270 | 6.0 | 13.0 | 0.00 | 0.00 | 0.00 | 27 | 1018.2 |